Ashfield, Massachusetts
Current Conditions -  °F | °C
As of 12:52 PM on Friday 21 Nov 2014 (Local Time) from KAQW Reporting Station
Light Snow Light Snow  
Wind Chill: 16°   Ceiling: 3400
Heat Index: 27°   Visibility: 8mi
Dew Point: 15°   Wind: 13mph
Humidity: 61%   Direction: 270°W
Pressure: 30.2"   Gusts: 20mph
Location:  42.53°N, 72.79°W
Report Text: KAQW 211752Z AUTO 27011G17KT 8SM -SN BKN034 BKN043 OVC050 M03/M09 A3020 RMK AO2 SNE1655B50 SLP236 P0000 60000 T10281094 11017 21056 51020
Loading
Personal Weather Stations






























Interactive Weather Map New forecast layout! Learn more

10-Day Weather Forecast

Advertisements
Track Severe Weather on mobile